sensor_id;sensor_type;location;lat;lon;timestamp;P1;durP1;ratioP1;P2;durP2;ratioP2
6111;SDS011;3086;48.802;9.394;2023-06-22T00:00:08;9.50;;;8.47;;
6111;SDS011;3086;48.802;9.394;2023-06-22T00:03:32;9.57;;;8.03;;
6111;SDS011;3086;48.802;9.394;2023-06-22T00:06:53;12.53;;;8.40;;
6111;SDS011;3086;48.802;9.394;2023-06-22T00:10:15;9.73;;;8.37;;
6111;SDS011;3086;48.802;9.394;2023-06-22T00:13:37;9.73;;;7.43;;
6111;SDS011;3086;48.802;9.394;2023-06-22T00:17:00;11.77;;;8.93;;
6111;SDS011;3086;48.802;9.394;2023-06-22T00:20:21;8.50;;;7.70;;
6111;SDS011;3086;48.802;9.394;2023-06-22T00:23:43;11.10;;;8.50;;
6111;SDS011;3086;48.802;9.394;2023-06-22T00:27:09;9.97;;;8.47;;
6111;SDS011;3086;48.802;9.394;2023-06-22T00:30:31;10.00;;;8.57;;
6111;SDS011;3086;48.802;9.394;2023-06-22T00:33:54;9.53;;;8.30;;
6111;SDS011;3086;48.802;9.394;2023-06-22T00:37:16;9.33;;;7.90;;
6111;SDS011;3086;48.802;9.394;2023-06-22T00:40:38;9.30;;;8.37;;
6111;SDS011;3086;48.802;9.394;2023-06-22T00:44:00;10.83;;;7.73;;
6111;SDS011;3086;48.802;9.394;2023-06-22T00:47:22;9.50;;;7.83;;
6111;SDS011;3086;48.802;9.394;2023-06-22T00:50:45;9.47;;;7.67;;
6111;SDS011;3086;48.802;9.394;2023-06-22T00:54:10;10.80;;;7.63;;
6111;SDS011;3086;48.802;9.394;2023-06-22T00:57:33;10.57;;;8.60;;
6111;SDS011;3086;48.802;9.394;2023-06-22T01:00:57;11.03;;;9.27;;
6111;SDS011;3086;48.802;9.394;2023-06-22T01:04:21;12.93;;;8.73;;
6111;SDS011;3086;48.802;9.394;2023-06-22T01:07:49;9.83;;;8.80;;
6111;SDS011;3086;48.802;9.394;2023-06-22T01:11:17;9.40;;;8.60;;
6111;SDS011;3086;48.802;9.394;2023-06-22T01:14:42;9.77;;;8.27;;
6111;SDS011;3086;48.802;9.394;2023-06-22T01:18:06;8.70;;;7.90;;
6111;SDS011;3086;48.802;9.394;2023-06-22T01:21:30;9.37;;;8.50;;
6111;SDS011;3086;48.802;9.394;2023-06-22T01:24:57;10.87;;;8.57;;
6111;SDS011;3086;48.802;9.394;2023-06-22T01:28:45;8.63;;;7.83;;
6111;SDS011;3086;48.802;9.394;2023-06-22T01:32:07;12.70;;;8.73;;
6111;SDS011;3086;48.802;9.394;2023-06-22T01:35:29;8.87;;;8.07;;
6111;SDS011;3086;48.802;9.394;2023-06-22T01:38:51;10.13;;;8.70;;
6111;SDS011;3086;48.802;9.394;2023-06-22T01:42:13;11.40;;;8.93;;
6111;SDS011;3086;48.802;9.394;2023-06-22T01:45:36;11.13;;;8.10;;
6111;SDS011;3086;48.802;9.394;2023-06-22T01:48:58;11.57;;;9.40;;
6111;SDS011;3086;48.802;9.394;2023-06-22T01:52:19;10.93;;;9.60;;
6111;SDS011;3086;48.802;9.394;2023-06-22T01:55:42;9.30;;;8.40;;
6111;SDS011;3086;48.802;9.394;2023-06-22T01:59:05;9.70;;;8.70;;
6111;SDS011;3086;48.802;9.394;2023-06-22T02:02:33;9.57;;;8.60;;
6111;SDS011;3086;48.802;9.394;2023-06-22T02:06:00;10.10;;;8.77;;
6111;SDS011;3086;48.802;9.394;2023-06-22T02:09:23;12.03;;;8.80;;
6111;SDS011;3086;48.802;9.394;2023-06-22T02:12:47;9.40;;;8.50;;
6111;SDS011;3086;48.802;9.394;2023-06-22T02:16:09;10.10;;;9.13;;
6111;SDS011;3086;48.802;9.394;2023-06-22T02:19:35;10.53;;;8.53;;
6111;SDS011;3086;48.802;9.394;2023-06-22T02:22:57;10.87;;;9.07;;
6111;SDS011;3086;48.802;9.394;2023-06-22T02:26:18;9.37;;;8.37;;
6111;SDS011;3086;48.802;9.394;2023-06-22T02:29:40;11.03;;;9.27;;
6111;SDS011;3086;48.802;9.394;2023-06-22T02:33:02;10.13;;;8.77;;
6111;SDS011;3086;48.802;9.394;2023-06-22T02:36:25;11.37;;;8.97;;
6111;SDS011;3086;48.802;9.394;2023-06-22T02:39:46;10.23;;;8.60;;
6111;SDS011;3086;48.802;9.394;2023-06-22T02:43:08;11.83;;;8.70;;
6111;SDS011;3086;48.802;9.394;2023-06-22T02:46:29;9.60;;;8.33;;
6111;SDS011;3086;48.802;9.394;2023-06-22T02:49:51;8.93;;;7.97;;
6111;SDS011;3086;48.802;9.394;2023-06-22T02:53:14;9.90;;;8.90;;
6111;SDS011;3086;48.802;9.394;2023-06-22T02:56:36;10.50;;;8.70;;
6111;SDS011;3086;48.802;9.394;2023-06-22T02:59:57;11.30;;;8.87;;
6111;SDS011;3086;48.802;9.394;2023-06-22T03:03:20;10.90;;;9.30;;
6111;SDS011;3086;48.802;9.394;2023-06-22T03:06:41;14.23;;;9.57;;
6111;SDS011;3086;48.802;9.394;2023-06-22T03:10:05;10.20;;;8.87;;
6111;SDS011;3086;48.802;9.394;2023-06-22T03:13:27;12.33;;;8.93;;
6111;SDS011;3086;48.802;9.394;2023-06-22T03:16:48;9.17;;;8.27;;
6111;SDS011;3086;48.802;9.394;2023-06-22T03:20:10;9.43;;;8.47;;
6111;SDS011;3086;48.802;9.394;2023-06-22T03:23:32;10.03;;;8.73;;
6111;SDS011;3086;48.802;9.394;2023-06-22T03:30:20;9.67;;;8.07;;
6111;SDS011;3086;48.802;9.394;2023-06-22T03:33:42;10.87;;;8.73;;
6111;SDS011;3086;48.802;9.394;2023-06-22T03:37:04;10.13;;;8.10;;
6111;SDS011;3086;48.802;9.394;2023-06-22T03:40:25;12.47;;;9.50;;
6111;SDS011;3086;48.802;9.394;2023-06-22T03:43:48;12.17;;;9.37;;
6111;SDS011;3086;48.802;9.394;2023-06-22T03:47:09;10.27;;;9.17;;
6111;SDS011;3086;48.802;9.394;2023-06-22T03:50:31;13.97;;;9.67;;
6111;SDS011;3086;48.802;9.394;2023-06-22T03:53:52;10.43;;;9.43;;
6111;SDS011;3086;48.802;9.394;2023-06-22T03:57:14;10.50;;;9.20;;
6111;SDS011;3086;48.802;9.394;2023-06-22T04:00:37;9.43;;;8.13;;
6111;SDS011;3086;48.802;9.394;2023-06-22T04:03:58;10.13;;;8.97;;
6111;SDS011;3086;48.802;9.394;2023-06-22T04:07:20;9.47;;;8.43;;
6111;SDS011;3086;48.802;9.394;2023-06-22T04:10:41;9.50;;;8.33;;
6111;SDS011;3086;48.802;9.394;2023-06-22T04:14:03;10.23;;;8.43;;
6111;SDS011;3086;48.802;9.394;2023-06-22T04:17:26;10.07;;;8.40;;
6111;SDS011;3086;48.802;9.394;2023-06-22T04:20:48;10.07;;;8.40;;
6111;SDS011;3086;48.802;9.394;2023-06-22T04:24:09;10.70;;;8.53;;
6111;SDS011;3086;48.802;9.394;2023-06-22T04:30:57;8.83;;;7.93;;
6111;SDS011;3086;48.802;9.394;2023-06-22T04:34:23;9.97;;;8.97;;
6111;SDS011;3086;48.802;9.394;2023-06-22T04:37:46;9.37;;;8.47;;
6111;SDS011;3086;48.802;9.394;2023-06-22T04:41:08;10.13;;;8.40;;
6111;SDS011;3086;48.802;9.394;2023-06-22T04:44:34;9.03;;;8.03;;
6111;SDS011;3086;48.802;9.394;2023-06-22T04:47:55;9.37;;;8.37;;
6111;SDS011;3086;48.802;9.394;2023-06-22T04:51:18;9.73;;;8.73;;
6111;SDS011;3086;48.802;9.394;2023-06-22T04:54:41;9.23;;;8.40;;
6111;SDS011;3086;48.802;9.394;2023-06-22T04:58:07;11.67;;;8.13;;
6111;SDS011;3086;48.802;9.394;2023-06-22T05:01:29;8.97;;;7.97;;
6111;SDS011;3086;48.802;9.394;2023-06-22T05:04:52;8.93;;;8.03;;
6111;SDS011;3086;48.802;9.394;2023-06-22T05:08:18;9.27;;;8.20;;
6111;SDS011;3086;48.802;9.394;2023-06-22T05:11:39;8.43;;;6.90;;
6111;SDS011;3086;48.802;9.394;2023-06-22T05:15:01;9.40;;;8.23;;
6111;SDS011;3086;48.802;9.394;2023-06-22T05:18:23;11.20;;;8.13;;
6111;SDS011;3086;48.802;9.394;2023-06-22T05:21:50;8.67;;;7.87;;
6111;SDS011;3086;48.802;9.394;2023-06-22T05:25:16;8.40;;;7.50;;
6111;SDS011;3086;48.802;9.394;2023-06-22T05:28:39;9.17;;;8.27;;
6111;SDS011;3086;48.802;9.394;2023-06-22T05:32:06;10.43;;;7.87;;
6111;SDS011;3086;48.802;9.394;2023-06-22T05:35:31;8.63;;;7.73;;
6111;SDS011;3086;48.802;9.394;2023-06-22T05:39:10;11.17;;;8.17;;
6111;SDS011;3086;48.802;9.394;2023-06-22T05:42:34;10.10;;;8.27;;
6111;SDS011;3086;48.802;9.394;2023-06-22T05:45:56;8.73;;;7.73;;
6111;SDS011;3086;48.802;9.394;2023-06-22T05:49:18;8.53;;;7.73;;
6111;SDS011;3086;48.802;9.394;2023-06-22T05:52:42;12.93;;;8.03;;
6111;SDS011;3086;48.802;9.394;2023-06-22T05:56:03;10.93;;;7.50;;
6111;SDS011;3086;48.802;9.394;2023-06-22T05:59:26;7.50;;;6.67;;
6111;SDS011;3086;48.802;9.394;2023-06-22T06:02:48;8.23;;;7.43;;
6111;SDS011;3086;48.802;9.394;2023-06-22T06:06:09;8.93;;;6.83;;
6111;SDS011;3086;48.802;9.394;2023-06-22T06:09:31;8.97;;;7.30;;
6111;SDS011;3086;48.802;9.394;2023-06-22T06:12:53;8.40;;;7.53;;
6111;SDS011;3086;48.802;9.394;2023-06-22T06:16:15;9.00;;;7.00;;
6111;SDS011;3086;48.802;9.394;2023-06-22T06:19:37;7.97;;;6.83;;
6111;SDS011;3086;48.802;9.394;2023-06-22T06:22:59;7.57;;;6.80;;
6111;SDS011;3086;48.802;9.394;2023-06-22T06:26:24;9.87;;;6.80;;
6111;SDS011;3086;48.802;9.394;2023-06-22T06:29:49;7.40;;;6.67;;
6111;SDS011;3086;48.802;9.394;2023-06-22T06:33:12;8.40;;;6.33;;
6111;SDS011;3086;48.802;9.394;2023-06-22T06:36:34;7.30;;;6.60;;
6111;SDS011;3086;48.802;9.394;2023-06-22T06:39:55;10.57;;;7.10;;
6111;SDS011;3086;48.802;9.394;2023-06-22T06:43:17;7.77;;;6.07;;
6111;SDS011;3086;48.802;9.394;2023-06-22T06:46:39;8.57;;;6.00;;
6111;SDS011;3086;48.802;9.394;2023-06-22T06:50:06;8.27;;;5.90;;
6111;SDS011;3086;48.802;9.394;2023-06-22T06:53:28;6.77;;;5.87;;
6111;SDS011;3086;48.802;9.394;2023-06-22T06:56:50;6.53;;;5.67;;
6111;SDS011;3086;48.802;9.394;2023-06-22T07:00:12;7.63;;;6.07;;
6111;SDS011;3086;48.802;9.394;2023-06-22T07:03:35;7.40;;;5.80;;
6111;SDS011;3086;48.802;9.394;2023-06-22T07:06:58;8.10;;;5.80;;
6111;SDS011;3086;48.802;9.394;2023-06-22T07:10:22;7.37;;;5.93;;
6111;SDS011;3086;48.802;9.394;2023-06-22T07:13:43;7.50;;;6.20;;
6111;SDS011;3086;48.802;9.394;2023-06-22T07:17:05;6.27;;;5.67;;
6111;SDS011;3086;48.802;9.394;2023-06-22T07:20:26;6.80;;;6.07;;
6111;SDS011;3086;48.802;9.394;2023-06-22T07:23:49;5.83;;;5.23;;
6111;SDS011;3086;48.802;9.394;2023-06-22T07:27:11;9.53;;;6.27;;
6111;SDS011;3086;48.802;9.394;2023-06-22T07:30:33;7.43;;;5.17;;
6111;SDS011;3086;48.802;9.394;2023-06-22T07:33:55;7.93;;;5.20;;
6111;SDS011;3086;48.802;9.394;2023-06-22T07:37:16;8.17;;;5.77;;
6111;SDS011;3086;48.802;9.394;2023-06-22T07:40:39;8.03;;;6.00;;
6111;SDS011;3086;48.802;9.394;2023-06-22T07:44:02;7.67;;;4.47;;
6111;SDS011;3086;48.802;9.394;2023-06-22T07:47:24;7.13;;;5.43;;
6111;SDS011;3086;48.802;9.394;2023-06-22T07:50:48;6.87;;;4.80;;
6111;SDS011;3086;48.802;9.394;2023-06-22T07:54:10;6.43;;;4.80;;
6111;SDS011;3086;48.802;9.394;2023-06-22T07:57:32;6.67;;;5.20;;
6111;SDS011;3086;48.802;9.394;2023-06-22T08:00:54;8.07;;;5.40;;
6111;SDS011;3086;48.802;9.394;2023-06-22T08:04:16;9.83;;;5.07;;
6111;SDS011;3086;48.802;9.394;2023-06-22T08:07:37;5.90;;;4.83;;
6111;SDS011;3086;48.802;9.394;2023-06-22T08:10:59;9.50;;;4.77;;
6111;SDS011;3086;48.802;9.394;2023-06-22T08:14:22;6.80;;;5.20;;
6111;SDS011;3086;48.802;9.394;2023-06-22T08:17:43;5.87;;;4.77;;
6111;SDS011;3086;48.802;9.394;2023-06-22T08:21:05;8.93;;;4.70;;
6111;SDS011;3086;48.802;9.394;2023-06-22T08:24:26;5.87;;;4.60;;
6111;SDS011;3086;48.802;9.394;2023-06-22T08:27:50;8.40;;;4.40;;
6111;SDS011;3086;48.802;9.394;2023-06-22T08:31:13;6.90;;;4.23;;
6111;SDS011;3086;48.802;9.394;2023-06-22T08:34:35;8.07;;;5.13;;
6111;SDS011;3086;48.802;9.394;2023-06-22T08:37:57;8.33;;;4.47;;
6111;SDS011;3086;48.802;9.394;2023-06-22T08:41:19;7.43;;;4.63;;
6111;SDS011;3086;48.802;9.394;2023-06-22T08:44:41;5.27;;;4.17;;
6111;SDS011;3086;48.802;9.394;2023-06-22T08:48:04;6.17;;;4.37;;
6111;SDS011;3086;48.802;9.394;2023-06-22T08:51:26;5.50;;;4.70;;
6111;SDS011;3086;48.802;9.394;2023-06-22T08:54:48;7.67;;;5.00;;
6111;SDS011;3086;48.802;9.394;2023-06-22T08:58:10;7.67;;;4.70;;
6111;SDS011;3086;48.802;9.394;2023-06-22T09:01:32;8.57;;;4.70;;
6111;SDS011;3086;48.802;9.394;2023-06-22T09:04:54;8.47;;;4.37;;
6111;SDS011;3086;48.802;9.394;2023-06-22T09:08:16;10.43;;;5.40;;
6111;SDS011;3086;48.802;9.394;2023-06-22T09:11:38;6.63;;;4.77;;
6111;SDS011;3086;48.802;9.394;2023-06-22T09:14:59;8.57;;;4.67;;
6111;SDS011;3086;48.802;9.394;2023-06-22T09:18:22;7.40;;;4.93;;
6111;SDS011;3086;48.802;9.394;2023-06-22T09:21:45;7.43;;;4.63;;
6111;SDS011;3086;48.802;9.394;2023-06-22T09:25:07;8.20;;;4.83;;
6111;SDS011;3086;48.802;9.394;2023-06-22T09:28:30;5.70;;;4.33;;
6111;SDS011;3086;48.802;9.394;2023-06-22T09:31:51;10.17;;;5.07;;
6111;SDS011;3086;48.802;9.394;2023-06-22T09:35:13;7.67;;;4.57;;
6111;SDS011;3086;48.802;9.394;2023-06-22T09:38:37;8.13;;;5.13;;
6111;SDS011;3086;48.802;9.394;2023-06-22T09:41:59;6.67;;;4.77;;
6111;SDS011;3086;48.802;9.394;2023-06-22T09:45:20;10.47;;;5.20;;
6111;SDS011;3086;48.802;9.394;2023-06-22T09:48:42;11.53;;;5.20;;
6111;SDS011;3086;48.802;9.394;2023-06-22T09:52:04;11.90;;;6.70;;
6111;SDS011;3086;48.802;9.394;2023-06-22T09:55:28;11.03;;;6.80;;
6111;SDS011;3086;48.802;9.394;2023-06-22T09:58:49;9.27;;;4.90;;
6111;SDS011;3086;48.802;9.394;2023-06-22T10:02:12;6.77;;;4.67;;
6111;SDS011;3086;48.802;9.394;2023-06-22T10:05:34;9.70;;;4.93;;
6111;SDS011;3086;48.802;9.394;2023-06-22T10:08:55;6.50;;;5.33;;
6111;SDS011;3086;48.802;9.394;2023-06-22T10:12:18;6.37;;;4.87;;
6111;SDS011;3086;48.802;9.394;2023-06-22T10:15:41;9.13;;;4.93;;
6111;SDS011;3086;48.802;9.394;2023-06-22T10:19:05;7.87;;;5.27;;
6111;SDS011;3086;48.802;9.394;2023-06-22T10:22:27;11.97;;;5.83;;
6111;SDS011;3086;48.802;9.394;2023-06-22T10:25:48;8.83;;;5.33;;
6111;SDS011;3086;48.802;9.394;2023-06-22T10:29:11;10.67;;;4.90;;
6111;SDS011;3086;48.802;9.394;2023-06-22T10:32:33;9.43;;;4.80;;
6111;SDS011;3086;48.802;9.394;2023-06-22T10:35:54;10.53;;;5.00;;
6111;SDS011;3086;48.802;9.394;2023-06-22T10:39:16;9.40;;;4.77;;
6111;SDS011;3086;48.802;9.394;2023-06-22T10:42:37;8.03;;;5.50;;
6111;SDS011;3086;48.802;9.394;2023-06-22T10:46:00;9.20;;;4.83;;
6111;SDS011;3086;48.802;9.394;2023-06-22T10:49:22;8.43;;;5.10;;
6111;SDS011;3086;48.802;9.394;2023-06-22T10:52:43;9.97;;;4.87;;
6111;SDS011;3086;48.802;9.394;2023-06-22T10:56:05;11.03;;;5.70;;
6111;SDS011;3086;48.802;9.394;2023-06-22T10:59:27;11.77;;;5.43;;
6111;SDS011;3086;48.802;9.394;2023-06-22T11:02:50;8.10;;;4.90;;
6111;SDS011;3086;48.802;9.394;2023-06-22T11:06:13;10.50;;;5.13;;
6111;SDS011;3086;48.802;9.394;2023-06-22T11:09:35;8.47;;;5.20;;
6111;SDS011;3086;48.802;9.394;2023-06-22T11:12:58;10.30;;;5.30;;
6111;SDS011;3086;48.802;9.394;2023-06-22T11:16:19;10.87;;;5.17;;
6111;SDS011;3086;48.802;9.394;2023-06-22T11:19:42;10.00;;;5.30;;
6111;SDS011;3086;48.802;9.394;2023-06-22T11:23:04;8.37;;;4.90;;
6111;SDS011;3086;48.802;9.394;2023-06-22T11:26:26;8.07;;;5.10;;
6111;SDS011;3086;48.802;9.394;2023-06-22T11:29:48;11.97;;;5.67;;
6111;SDS011;3086;48.802;9.394;2023-06-22T11:33:09;12.00;;;5.03;;
6111;SDS011;3086;48.802;9.394;2023-06-22T11:36:32;7.40;;;4.73;;
6111;SDS011;3086;48.802;9.394;2023-06-22T11:39:55;10.33;;;5.77;;
6111;SDS011;3086;48.802;9.394;2023-06-22T11:43:16;6.93;;;5.60;;
6111;SDS011;3086;48.802;9.394;2023-06-22T11:46:38;9.50;;;5.40;;
6111;SDS011;3086;48.802;9.394;2023-06-22T11:49:59;8.13;;;5.30;;
6111;SDS011;3086;48.802;9.394;2023-06-22T11:53:24;8.13;;;5.20;;
6111;SDS011;3086;48.802;9.394;2023-06-22T11:56:46;9.68;;;6.07;;
6111;SDS011;3086;48.802;9.394;2023-06-22T12:00:08;9.33;;;5.77;;
6111;SDS011;3086;48.802;9.394;2023-06-22T12:03:37;12.67;;;5.10;;
6111;SDS011;3086;48.802;9.394;2023-06-22T12:06:58;10.23;;;5.63;;
6111;SDS011;3086;48.802;9.394;2023-06-22T12:10:21;10.87;;;5.87;;
6111;SDS011;3086;48.802;9.394;2023-06-22T12:13:44;10.27;;;5.67;;
6111;SDS011;3086;48.802;9.394;2023-06-22T12:17:06;9.37;;;5.97;;
6111;SDS011;3086;48.802;9.394;2023-06-22T12:20:27;12.43;;;6.10;;
6111;SDS011;3086;48.802;9.394;2023-06-22T12:23:49;13.63;;;6.13;;
6111;SDS011;3086;48.802;9.394;2023-06-22T12:27:12;11.20;;;5.60;;
6111;SDS011;3086;48.802;9.394;2023-06-22T12:30:36;9.73;;;6.43;;
6111;SDS011;3086;48.802;9.394;2023-06-22T12:33:57;14.83;;;5.87;;
6111;SDS011;3086;48.802;9.394;2023-06-22T12:37:19;14.33;;;5.90;;
6111;SDS011;3086;48.802;9.394;2023-06-22T12:40:40;12.67;;;5.80;;
6111;SDS011;3086;48.802;9.394;2023-06-22T12:44:04;12.27;;;5.97;;
6111;SDS011;3086;48.802;9.394;2023-06-22T12:47:25;10.33;;;5.43;;
6111;SDS011;3086;48.802;9.394;2023-06-22T12:50:47;9.30;;;5.97;;
6111;SDS011;3086;48.802;9.394;2023-06-22T12:54:09;11.33;;;5.87;;
6111;SDS011;3086;48.802;9.394;2023-06-22T12:57:30;10.53;;;5.57;;
6111;SDS011;3086;48.802;9.394;2023-06-22T13:00:53;10.30;;;5.90;;
6111;SDS011;3086;48.802;9.394;2023-06-22T13:04:15;12.13;;;5.70;;
6111;SDS011;3086;48.802;9.394;2023-06-22T13:07:38;10.37;;;5.40;;
6111;SDS011;3086;48.802;9.394;2023-06-22T13:10:59;9.90;;;5.80;;
6111;SDS011;3086;48.802;9.394;2023-06-22T13:14:21;8.97;;;5.47;;
6111;SDS011;3086;48.802;9.394;2023-06-22T13:17:44;12.40;;;5.73;;
6111;SDS011;3086;48.802;9.394;2023-06-22T13:21:05;12.73;;;5.90;;
6111;SDS011;3086;48.802;9.394;2023-06-22T13:24:27;15.63;;;6.13;;
6111;SDS011;3086;48.802;9.394;2023-06-22T13:27:48;13.80;;;5.93;;
6111;SDS011;3086;48.802;9.394;2023-06-22T13:31:10;8.37;;;6.07;;
6111;SDS011;3086;48.802;9.394;2023-06-22T13:34:33;13.50;;;5.40;;
6111;SDS011;3086;48.802;9.394;2023-06-22T13:37:54;10.27;;;5.30;;
6111;SDS011;3086;48.802;9.394;2023-06-22T13:41:16;11.07;;;5.57;;
6111;SDS011;3086;48.802;9.394;2023-06-22T13:44:38;12.80;;;6.30;;
6111;SDS011;3086;48.802;9.394;2023-06-22T13:47:59;12.03;;;6.50;;
6111;SDS011;3086;48.802;9.394;2023-06-22T13:51:22;13.40;;;6.27;;
6111;SDS011;3086;48.802;9.394;2023-06-22T13:54:44;14.83;;;5.70;;
6111;SDS011;3086;48.802;9.394;2023-06-22T13:58:06;10.93;;;5.50;;
6111;SDS011;3086;48.802;9.394;2023-06-22T14:01:28;9.57;;;5.50;;
6111;SDS011;3086;48.802;9.394;2023-06-22T14:04:49;10.97;;;6.17;;
6111;SDS011;3086;48.802;9.394;2023-06-22T14:08:12;10.50;;;5.43;;
6111;SDS011;3086;48.802;9.394;2023-06-22T14:11:35;16.67;;;5.73;;
6111;SDS011;3086;48.802;9.394;2023-06-22T14:14:56;11.63;;;5.83;;
6111;SDS011;3086;48.802;9.394;2023-06-22T14:18:18;10.97;;;5.67;;
6111;SDS011;3086;48.802;9.394;2023-06-22T14:21:39;14.03;;;5.00;;
6111;SDS011;3086;48.802;9.394;2023-06-22T14:25:04;11.73;;;5.50;;
6111;SDS011;3086;48.802;9.394;2023-06-22T14:28:26;9.37;;;4.80;;
6111;SDS011;3086;48.802;9.394;2023-06-22T14:31:48;9.03;;;5.07;;
6111;SDS011;3086;48.802;9.394;2023-06-22T14:35:09;11.37;;;5.53;;
6111;SDS011;3086;48.802;9.394;2023-06-22T14:38:31;18.23;;;6.40;;
6111;SDS011;3086;48.802;9.394;2023-06-22T14:41:55;11.27;;;5.00;;
6111;SDS011;3086;48.802;9.394;2023-06-22T14:45:17;10.43;;;5.37;;
6111;SDS011;3086;48.802;9.394;2023-06-22T14:48:38;11.43;;;5.03;;
6111;SDS011;3086;48.802;9.394;2023-06-22T14:52:00;11.52;;;5.20;;
6111;SDS011;3086;48.802;9.394;2023-06-22T14:55:21;8.37;;;5.00;;
6111;SDS011;3086;48.802;9.394;2023-06-22T14:58:44;9.43;;;4.90;;
6111;SDS011;3086;48.802;9.394;2023-06-22T15:02:06;8.23;;;4.67;;
6111;SDS011;3086;48.802;9.394;2023-06-22T15:05:27;11.13;;;4.83;;
6111;SDS011;3086;48.802;9.394;2023-06-22T15:08:49;11.10;;;4.60;;
6111;SDS011;3086;48.802;9.394;2023-06-22T15:12:11;6.37;;;4.07;;
6111;SDS011;3086;48.802;9.394;2023-06-22T15:15:34;9.73;;;4.37;;
6111;SDS011;3086;48.802;9.394;2023-06-22T15:18:55;9.30;;;3.80;;
6111;SDS011;3086;48.802;9.394;2023-06-22T15:22:17;10.07;;;4.87;;
6111;SDS011;3086;48.802;9.394;2023-06-22T15:25:39;10.63;;;3.97;;
6111;SDS011;3086;48.802;9.394;2023-06-22T15:29:02;11.97;;;4.27;;
6111;SDS011;3086;48.802;9.394;2023-06-22T15:32:24;7.73;;;3.20;;
6111;SDS011;3086;48.802;9.394;2023-06-22T15:35:46;11.40;;;3.80;;
6111;SDS011;3086;48.802;9.394;2023-06-22T15:39:07;9.97;;;3.63;;
6111;SDS011;3086;48.802;9.394;2023-06-22T15:42:29;12.83;;;4.67;;
6111;SDS011;3086;48.802;9.394;2023-06-22T15:45:51;8.00;;;4.10;;
6111;SDS011;3086;48.802;9.394;2023-06-22T15:49:15;12.07;;;4.07;;
6111;SDS011;3086;48.802;9.394;2023-06-22T15:52:36;13.27;;;4.00;;
6111;SDS011;3086;48.802;9.394;2023-06-22T15:55:58;9.77;;;3.37;;
6111;SDS011;3086;48.802;9.394;2023-06-22T15:59:19;10.17;;;3.80;;
6111;SDS011;3086;48.802;9.394;2023-06-22T16:02:41;11.70;;;4.13;;
6111;SDS011;3086;48.802;9.394;2023-06-22T16:06:04;9.37;;;3.80;;
6111;SDS011;3086;48.802;9.394;2023-06-22T16:09:25;12.47;;;4.07;;
6111;SDS011;3086;48.802;9.394;2023-06-22T16:12:47;15.70;;;4.47;;
6111;SDS011;3086;48.802;9.394;2023-06-22T16:16:09;8.93;;;3.73;;
6111;SDS011;3086;48.802;9.394;2023-06-22T16:19:31;9.27;;;3.33;;
6111;SDS011;3086;48.802;9.394;2023-06-22T16:22:54;10.53;;;3.87;;
6111;SDS011;3086;48.802;9.394;2023-06-22T16:26:15;9.03;;;3.63;;
6111;SDS011;3086;48.802;9.394;2023-06-22T16:29:37;8.23;;;3.70;;
6111;SDS011;3086;48.802;9.394;2023-06-22T16:32:58;9.57;;;4.00;;
6111;SDS011;3086;48.802;9.394;2023-06-22T16:36:22;13.00;;;4.30;;
6111;SDS011;3086;48.802;9.394;2023-06-22T16:39:45;10.33;;;4.27;;
6111;SDS011;3086;48.802;9.394;2023-06-22T16:43:06;10.97;;;4.70;;
6111;SDS011;3086;48.802;9.394;2023-06-22T16:46:28;7.00;;;3.70;;
6111;SDS011;3086;48.802;9.394;2023-06-22T16:49:49;8.87;;;4.10;;
6111;SDS011;3086;48.802;9.394;2023-06-22T16:53:11;11.23;;;4.53;;
6111;SDS011;3086;48.802;9.394;2023-06-22T16:56:34;9.90;;;4.27;;
6111;SDS011;3086;48.802;9.394;2023-06-22T16:59:56;10.77;;;3.90;;
6111;SDS011;3086;48.802;9.394;2023-06-22T17:03:20;8.90;;;3.67;;
6111;SDS011;3086;48.802;9.394;2023-06-22T17:06:46;10.20;;;4.00;;
6111;SDS011;3086;48.802;9.394;2023-06-22T17:10:10;10.20;;;3.60;;
6111;SDS011;3086;48.802;9.394;2023-06-22T17:13:33;7.03;;;3.47;;
6111;SDS011;3086;48.802;9.394;2023-06-22T17:16:56;5.77;;;3.13;;
6111;SDS011;3086;48.802;9.394;2023-06-22T17:20:17;7.70;;;3.13;;
6111;SDS011;3086;48.802;9.394;2023-06-22T17:23:39;13.67;;;3.57;;
6111;SDS011;3086;48.802;9.394;2023-06-22T17:27:01;8.63;;;3.20;;
6111;SDS011;3086;48.802;9.394;2023-06-22T17:30:24;8.73;;;3.47;;
6111;SDS011;3086;48.802;9.394;2023-06-22T17:33:49;8.07;;;3.53;;
6111;SDS011;3086;48.802;9.394;2023-06-22T17:37:10;7.47;;;3.77;;
6111;SDS011;3086;48.802;9.394;2023-06-22T17:40:32;8.10;;;3.43;;
6111;SDS011;3086;48.802;9.394;2023-06-22T17:43:55;9.17;;;3.50;;
6111;SDS011;3086;48.802;9.394;2023-06-22T17:47:23;10.00;;;3.80;;
6111;SDS011;3086;48.802;9.394;2023-06-22T17:50:45;7.43;;;3.43;;
6111;SDS011;3086;48.802;9.394;2023-06-22T17:54:06;5.37;;;3.23;;
6111;SDS011;3086;48.802;9.394;2023-06-22T17:57:31;10.87;;;3.50;;
6111;SDS011;3086;48.802;9.394;2023-06-22T18:04:52;10.50;;;3.30;;
6111;SDS011;3086;48.802;9.394;2023-06-22T18:08:18;5.67;;;3.07;;
6111;SDS011;3086;48.802;9.394;2023-06-22T18:11:46;7.53;;;3.33;;
6111;SDS011;3086;48.802;9.394;2023-06-22T18:15:08;8.83;;;3.20;;
6111;SDS011;3086;48.802;9.394;2023-06-22T18:18:30;10.40;;;3.23;;
6111;SDS011;3086;48.802;9.394;2023-06-22T18:21:54;6.80;;;2.73;;
6111;SDS011;3086;48.802;9.394;2023-06-22T18:25:16;5.27;;;2.63;;
6111;SDS011;3086;48.802;9.394;2023-06-22T18:28:37;9.67;;;3.60;;
6111;SDS011;3086;48.802;9.394;2023-06-22T18:31:59;5.90;;;3.00;;
6111;SDS011;3086;48.802;9.394;2023-06-22T18:35:22;8.10;;;3.10;;
6111;SDS011;3086;48.802;9.394;2023-06-22T18:38:45;9.53;;;3.10;;
6111;SDS011;3086;48.802;9.394;2023-06-22T18:42:09;5.03;;;2.97;;
6111;SDS011;3086;48.802;9.394;2023-06-22T18:45:30;5.00;;;3.00;;
6111;SDS011;3086;48.802;9.394;2023-06-22T18:48:52;5.60;;;3.03;;
6111;SDS011;3086;48.802;9.394;2023-06-22T18:52:15;4.83;;;2.67;;
6111;SDS011;3086;48.802;9.394;2023-06-22T18:55:41;7.90;;;3.53;;
6111;SDS011;3086;48.802;9.394;2023-06-22T18:59:04;7.50;;;2.77;;
6111;SDS011;3086;48.802;9.394;2023-06-22T19:10:26;6.57;;;3.10;;
6111;SDS011;3086;48.802;9.394;2023-06-22T19:13:51;7.97;;;3.57;;
6111;SDS011;3086;48.802;9.394;2023-06-22T19:17:13;7.00;;;3.40;;
6111;SDS011;3086;48.802;9.394;2023-06-22T19:20:39;9.33;;;3.20;;
6111;SDS011;3086;48.802;9.394;2023-06-22T19:24:01;5.40;;;3.00;;
6111;SDS011;3086;48.802;9.394;2023-06-22T19:27:23;4.50;;;2.83;;
6111;SDS011;3086;48.802;9.394;2023-06-22T19:30:52;7.23;;;3.20;;
6111;SDS011;3086;48.802;9.394;2023-06-22T19:34:14;5.33;;;3.10;;
6111;SDS011;3086;48.802;9.394;2023-06-22T19:37:36;5.30;;;3.10;;
6111;SDS011;3086;48.802;9.394;2023-06-22T19:41:00;6.60;;;3.03;;
6111;SDS011;3086;48.802;9.394;2023-06-22T19:44:22;7.50;;;3.23;;
6111;SDS011;3086;48.802;9.394;2023-06-22T19:47:45;8.20;;;2.87;;
6111;SDS011;3086;48.802;9.394;2023-06-22T19:51:06;7.90;;;3.33;;
6111;SDS011;3086;48.802;9.394;2023-06-22T19:54:28;7.50;;;3.23;;
6111;SDS011;3086;48.802;9.394;2023-06-22T19:57:51;4.57;;;2.70;;
6111;SDS011;3086;48.802;9.394;2023-06-22T20:01:13;10.53;;;3.50;;
6111;SDS011;3086;48.802;9.394;2023-06-22T20:04:37;6.80;;;3.20;;
6111;SDS011;3086;48.802;9.394;2023-06-22T20:08:01;5.60;;;3.00;;
6111;SDS011;3086;48.802;9.394;2023-06-22T20:11:24;6.23;;;3.23;;
6111;SDS011;3086;48.802;9.394;2023-06-22T20:14:46;12.00;;;3.57;;
6111;SDS011;3086;48.802;9.394;2023-06-22T20:18:09;7.43;;;3.20;;
6111;SDS011;3086;48.802;9.394;2023-06-22T20:21:32;10.17;;;3.43;;
6111;SDS011;3086;48.802;9.394;2023-06-22T20:24:54;9.47;;;3.47;;
6111;SDS011;3086;48.802;9.394;2023-06-22T20:28:16;9.37;;;3.60;;
6111;SDS011;3086;48.802;9.394;2023-06-22T20:31:38;5.03;;;3.53;;
6111;SDS011;3086;48.802;9.394;2023-06-22T20:35:01;6.07;;;3.17;;
6111;SDS011;3086;48.802;9.394;2023-06-22T20:38:25;6.13;;;3.47;;
6111;SDS011;3086;48.802;9.394;2023-06-22T20:41:48;7.03;;;3.70;;
6111;SDS011;3086;48.802;9.394;2023-06-22T20:45:10;6.90;;;3.73;;
6111;SDS011;3086;48.802;9.394;2023-06-22T20:48:31;7.03;;;3.40;;
6111;SDS011;3086;48.802;9.394;2023-06-22T20:51:53;9.37;;;3.90;;
6111;SDS011;3086;48.802;9.394;2023-06-22T20:55:16;7.30;;;3.33;;
6111;SDS011;3086;48.802;9.394;2023-06-22T20:58:37;6.37;;;3.73;;
6111;SDS011;3086;48.802;9.394;2023-06-22T21:01:59;8.40;;;4.00;;
6111;SDS011;3086;48.802;9.394;2023-06-22T21:05:21;7.93;;;3.60;;
6111;SDS011;3086;48.802;9.394;2023-06-22T21:08:43;9.33;;;4.43;;